Airfield :
LOGIN :

Register | Disclaimer

   EN    FR    IT 

 










Legend :    VFR   Marginal VFR   IFR   Intensive IFR   Very Intensive IFR
Visi :
Ceiling :
>= 8 km
>= 3000ft
5 to 8 km
1000 to 3000 ft
1500m to 5 km
500 to 1000 ft
800 to 1500m
200 to 500 ft
< 800m
< 200 ft
Symbols :   Thunderstorms  Fog  Heavy snow  Heavy precipitations  Wind > 20 kt
SIGMETs :     Misc.  Thunderstorms  Icing  Turbulence  Mountain Waves  Volcanic Ashes






- Airport Elevation : 20 ft


EBFN - Koksijde

CURRENT METAR :
  • 200918Z VRB01KT 1500 BR BKN002 08/08 Q1018 AMB AMB BECMG YLO

EXPIRED METARs :
  • 200855Z VRB01KT 0800 FG OVC002 07/07 Q1018 AMB AMB TEMPO RED
  • 200853Z VRB01KT 0800 FG OVC002 07/07 Q1018 AMB AMB TEMPO RED
  • 200844Z VRB02KT 0600 FG OVC002 07/07 Q1018 RED RED BECMG AMB
  • 200825Z VRB02KT 0300 FG OVC002 07/07 Q1018 RED AMB TEMPO RED
  • 200755Z VRB02KT 0200 FG OVC002 06/06 Q1018 RED AMB TEMPO RED
  • 200725Z VRB01KT 0200 FG OVC002 06/06 Q1018 RED AMB TEMPO RED
  • 200723Z VRB01KT 0200 FG OVC002 06/06 Q1018 RED AMB TEMPO RED
  • 200655Z VRB01KT 0100 FG OVC001 06/06 Q1018 RED RED
  • 200625Z VRB02KT 0100 FG OVC001 05/05 Q1018 RED RED

TAF TAF EBFN
Valid from the 20 at 07:00 until the 20 at 16:00 UTC


200541Z 2007/2016 VRB02KT 0100 FG OVC001
BECMG 2008/2010 2000 BR SCT003
BECMG 2010/2012 01005KT 6000 NSW SCT020
BECMG 2011/2013 9999 FEW030
PROB30
TEMPO 2013/2016 7000 -SHRA SCT020



MET'MAP, your aeronautical weather chart ! - Copyright ORBIFLY December 2007 - Disclaimer

ORBIFLY MET'MAP TEAM :

Programming & Development : Alexandra Zaïnal
Concept & original design : Baudouin d'Aumeries
Assistance for programming : Marc-Olivier Méhu
Technical & hardware support : Manuel Goepfert

Contact : metmap@orbifly.com




SOURCES & CREDITS :

   NOAA